sensor_id;sensor_type;location;lat;lon;timestamp;pressure;altitude;pressure_sealevel;temperature;humidity
18022;BME280;9136;48.822;7.966;2023-03-04T00:00:01;100922.69;;;1.65;100.00
18022;BME280;9136;48.822;7.966;2023-03-04T00:02:51;100939.16;;;1.71;100.00
18022;BME280;9136;48.822;7.966;2023-03-04T00:05:39;100937.38;;;1.67;100.00
18022;BME280;9136;48.822;7.966;2023-03-04T00:08:27;100932.97;;;1.60;100.00
18022;BME280;9136;48.822;7.966;2023-03-04T00:11:14;100924.19;;;1.51;100.00
18022;BME280;9136;48.822;7.966;2023-03-04T00:14:02;100931.97;;;1.54;100.00
18022;BME280;9136;48.822;7.966;2023-03-04T00:16:50;100942.44;;;1.58;100.00
18022;BME280;9136;48.822;7.966;2023-03-04T00:19:39;100941.53;;;1.56;100.00
18022;BME280;9136;48.822;7.966;2023-03-04T00:22:27;100942.34;;;1.54;100.00
18022;BME280;9136;48.822;7.966;2023-03-04T00:25:15;100942.28;;;1.49;100.00
18022;BME280;9136;48.822;7.966;2023-03-04T00:28:03;100929.22;;;1.43;100.00
18022;BME280;9136;48.822;7.966;2023-03-04T00:30:51;100926.63;;;1.41;100.00
18022;BME280;9136;48.822;7.966;2023-03-04T00:33:39;100943.03;;;1.43;100.00
18022;BME280;9136;48.822;7.966;2023-03-04T00:36:30;100924.84;;;1.37;100.00
18022;BME280;9136;48.822;7.966;2023-03-04T00:39:17;100930.03;;;1.37;100.00
18022;BME280;9136;48.822;7.966;2023-03-04T00:42:05;100920.38;;;1.29;100.00
18022;BME280;9136;48.822;7.966;2023-03-04T00:44:53;100934.25;;;1.34;100.00
18022;BME280;9136;48.822;7.966;2023-03-04T00:47:40;100934.19;;;1.29;100.00
18022;BME280;9136;48.822;7.966;2023-03-04T00:50:28;100921.88;;;1.14;100.00
18022;BME280;9136;48.822;7.966;2023-03-04T00:53:17;100931.50;;;1.23;100.00
18022;BME280;9136;48.822;7.966;2023-03-04T00:56:06;100930.56;;;1.18;100.00
18022;BME280;9136;48.822;7.966;2023-03-04T00:58:54;100914.72;;;1.00;100.00
18022;BME280;9136;48.822;7.966;2023-03-04T01:01:41;100943.50;;;1.18;100.00
18022;BME280;9136;48.822;7.966;2023-03-04T01:04:29;100944.28;;;1.14;100.00
18022;BME280;9136;48.822;7.966;2023-03-04T01:07:17;100925.09;;;1.01;100.00
18022;BME280;9136;48.822;7.966;2023-03-04T01:10:09;100943.41;;;1.12;100.00
18022;BME280;9136;48.822;7.966;2023-03-04T01:12:58;100946.97;;;1.19;100.00
18022;BME280;9136;48.822;7.966;2023-03-04T01:15:45;100948.81;;;1.26;100.00
18022;BME280;9136;48.822;7.966;2023-03-04T01:18:33;100948.78;;;1.24;100.00
18022;BME280;9136;48.822;7.966;2023-03-04T01:21:21;100934.03;;;1.19;100.00
18022;BME280;9136;48.822;7.966;2023-03-04T01:24:09;100940.13;;;1.24;100.00
18022;BME280;9136;48.822;7.966;2023-03-04T01:26:58;100940.91;;;1.18;100.00
18022;BME280;9136;48.822;7.966;2023-03-04T01:29:46;100934.81;;;1.14;100.00
18022;BME280;9136;48.822;7.966;2023-03-04T01:32:33;100937.44;;;1.16;100.00
18022;BME280;9136;48.822;7.966;2023-03-04T01:35:21;100916.66;;;1.11;100.00
18022;BME280;9136;48.822;7.966;2023-03-04T01:38:09;100930.47;;;1.12;100.00
18022;BME280;9136;48.822;7.966;2023-03-04T01:40:57;100929.44;;;1.04;100.00
18022;BME280;9136;48.822;7.966;2023-03-04T01:43:47;100916.25;;;0.89;100.00
18022;BME280;9136;48.822;7.966;2023-03-04T01:46:35;100928.44;;;0.96;100.00
18022;BME280;9136;48.822;7.966;2023-03-04T01:49:23;100921.47;;;0.90;100.00
18022;BME280;9136;48.822;7.966;2023-03-04T01:52:12;100931.03;;;0.96;100.00
18022;BME280;9136;48.822;7.966;2023-03-04T01:55:00;100933.59;;;0.96;100.00
18022;BME280;9136;48.822;7.966;2023-03-04T01:57:48;100924.81;;;0.86;100.00
18022;BME280;9136;48.822;7.966;2023-03-04T02:00:39;100924.59;;;0.74;100.00
18022;BME280;9136;48.822;7.966;2023-03-04T02:03:27;100931.50;;;0.73;100.00
18022;BME280;9136;48.822;7.966;2023-03-04T02:06:15;100927.00;;;0.65;100.00
18022;BME280;9136;48.822;7.966;2023-03-04T02:09:03;100931.28;;;0.61;100.00
18022;BME280;9136;48.822;7.966;2023-03-04T02:11:52;100918.25;;;0.56;100.00
18022;BME280;9136;48.822;7.966;2023-03-04T02:14:39;100906.78;;;0.42;100.00
18022;BME280;9136;48.822;7.966;2023-03-04T02:17:31;100910.22;;;0.43;100.00
18022;BME280;9136;48.822;7.966;2023-03-04T02:20:34;100922.28;;;0.42;100.00
18022;BME280;9136;48.822;7.966;2023-03-04T02:23:30;100918.84;;;0.42;100.00
18022;BME280;9136;48.822;7.966;2023-03-04T02:26:22;100926.44;;;0.34;100.00
18022;BME280;9136;48.822;7.966;2023-03-04T02:29:10;100934.88;;;0.25;100.00
18022;BME280;9136;48.822;7.966;2023-03-04T02:31:58;100908.66;;;0.09;100.00
18022;BME280;9136;48.822;7.966;2023-03-04T02:34:47;100920.63;;;0.04;100.00
18022;BME280;9136;48.822;7.966;2023-03-04T02:37:36;100915.06;;;-0.15;100.00
18022;BME280;9136;48.822;7.966;2023-03-04T02:40:26;100919.25;;;-0.20;100.00
18022;BME280;9136;48.822;7.966;2023-03-04T02:43:17;100925.38;;;-0.16;100.00
18022;BME280;9136;48.822;7.966;2023-03-04T02:46:04;100921.63;;;-0.29;100.00
18022;BME280;9136;48.822;7.966;2023-03-04T02:48:52;100932.03;;;-0.26;100.00
18022;BME280;9136;48.822;7.966;2023-03-04T02:51:40;100909.50;;;-0.33;100.00
18022;BME280;9136;48.822;7.966;2023-03-04T02:54:28;100922.56;;;-0.27;100.00
18022;BME280;9136;48.822;7.966;2023-03-04T02:57:16;100911.19;;;-0.35;100.00
18022;BME280;9136;48.822;7.966;2023-03-04T03:00:07;100917.81;;;-0.46;100.00
18022;BME280;9136;48.822;7.966;2023-03-04T03:02:56;100913.56;;;-0.44;100.00
18022;BME280;9136;48.822;7.966;2023-03-04T03:05:44;100916.09;;;-0.46;100.00
18022;BME280;9136;48.822;7.966;2023-03-04T03:08:31;100922.13;;;-0.45;100.00
18022;BME280;9136;48.822;7.966;2023-03-04T03:11:19;100914.25;;;-0.51;100.00
18022;BME280;9136;48.822;7.966;2023-03-04T03:14:07;100906.22;;;-0.64;100.00
18022;BME280;9136;48.822;7.966;2023-03-04T03:16:56;100912.19;;;-0.66;100.00
18022;BME280;9136;48.822;7.966;2023-03-04T03:19:44;100902.63;;;-0.70;100.00
18022;BME280;9136;48.822;7.966;2023-03-04T03:22:32;100887.69;;;-0.83;100.00
18022;BME280;9136;48.822;7.966;2023-03-04T03:25:20;100907.44;;;-0.84;100.00
18022;BME280;9136;48.822;7.966;2023-03-04T03:28:07;100899.59;;;-0.89;100.00
18022;BME280;9136;48.822;7.966;2023-03-04T03:30:55;100905.47;;;-0.94;100.00
18022;BME280;9136;48.822;7.966;2023-03-04T03:33:45;100902.78;;;-0.99;100.00
18022;BME280;9136;48.822;7.966;2023-03-04T03:36:32;100906.13;;;-1.03;100.00
18022;BME280;9136;48.822;7.966;2023-03-04T03:39:20;100902.53;;;-1.08;100.00
18022;BME280;9136;48.822;7.966;2023-03-04T03:42:07;100894.75;;;-1.11;100.00
18022;BME280;9136;48.822;7.966;2023-03-04T03:44:55;100910.28;;;-1.08;100.00
18022;BME280;9136;48.822;7.966;2023-03-04T03:47:43;100896.28;;;-1.18;100.00
18022;BME280;9136;48.822;7.966;2023-03-04T03:50:32;100884.00;;;-1.28;100.00
18022;BME280;9136;48.822;7.966;2023-03-04T03:53:20;100904.13;;;-1.14;100.00
18022;BME280;9136;48.822;7.966;2023-03-04T03:56:07;100894.34;;;-1.26;100.00
18022;BME280;9136;48.822;7.966;2023-03-04T03:58:55;100915.28;;;-1.14;100.00
18022;BME280;9136;48.822;7.966;2023-03-04T04:01:43;100898.63;;;-1.27;100.00
18022;BME280;9136;48.822;7.966;2023-03-04T04:04:31;100901.13;;;-1.30;100.00
18022;BME280;9136;48.822;7.966;2023-03-04T04:07:21;100913.25;;;-1.26;100.00
18022;BME280;9136;48.822;7.966;2023-03-04T04:10:09;100915.06;;;-1.23;100.00
18022;BME280;9136;48.822;7.966;2023-03-04T04:12:57;100898.44;;;-1.34;100.00
18022;BME280;9136;48.822;7.966;2023-03-04T04:15:45;100913.91;;;-1.34;100.00
18022;BME280;9136;48.822;7.966;2023-03-04T04:18:33;100907.81;;;-1.36;100.00
18022;BME280;9136;48.822;7.966;2023-03-04T04:21:21;100918.34;;;-1.29;100.00
18022;BME280;9136;48.822;7.966;2023-03-04T04:24:10;100916.63;;;-1.28;100.00
18022;BME280;9136;48.822;7.966;2023-03-04T04:26:58;100899.31;;;-1.34;100.00
18022;BME280;9136;48.822;7.966;2023-03-04T04:29:46;100919.94;;;-1.34;100.00
18022;BME280;9136;48.822;7.966;2023-03-04T04:32:34;100887.63;;;-1.54;100.00
18022;BME280;9136;48.822;7.966;2023-03-04T04:35:21;100902.31;;;-1.50;100.00
18022;BME280;9136;48.822;7.966;2023-03-04T04:38:10;100916.09;;;-1.48;100.00
18022;BME280;9136;48.822;7.966;2023-03-04T04:41:00;100916.75;;;-1.55;100.00
18022;BME280;9136;48.822;7.966;2023-03-04T04:43:47;100931.09;;;-1.65;100.00
18022;BME280;9136;48.822;7.966;2023-03-04T04:46:35;100922.97;;;-1.79;100.00
18022;BME280;9136;48.822;7.966;2023-03-04T04:49:23;100923.81;;;-1.80;100.00
18022;BME280;9136;48.822;7.966;2023-03-04T04:52:11;100923.81;;;-1.80;100.00
18022;BME280;9136;48.822;7.966;2023-03-04T04:54:59;100929.00;;;-1.78;100.00
18022;BME280;9136;48.822;7.966;2023-03-04T04:57:48;100934.16;;;-1.78;100.00
18022;BME280;9136;48.822;7.966;2023-03-04T05:00:35;100922.78;;;-1.85;100.00
18022;BME280;9136;48.822;7.966;2023-03-04T05:03:23;100924.47;;;-1.87;100.00
18022;BME280;9136;48.822;7.966;2023-03-04T05:06:11;100913.91;;;-1.96;100.00
18022;BME280;9136;48.822;7.966;2023-03-04T05:08:59;100914.75;;;-1.95;100.00
18022;BME280;9136;48.822;7.966;2023-03-04T05:11:47;100921.53;;;-1.99;100.00
18022;BME280;9136;48.822;7.966;2023-03-04T05:14:36;100925.03;;;-1.97;100.00
18022;BME280;9136;48.822;7.966;2023-03-04T05:17:24;100927.53;;;-2.00;100.00
18022;BME280;9136;48.822;7.966;2023-03-04T05:20:12;100905.75;;;-2.11;100.00
18022;BME280;9136;48.822;7.966;2023-03-04T05:23:00;100906.47;;;-2.15;100.00
18022;BME280;9136;48.822;7.966;2023-03-04T05:25:48;100915.97;;;-2.13;100.00
18022;BME280;9136;48.822;7.966;2023-03-04T05:28:36;100925.50;;;-2.10;100.00
18022;BME280;9136;48.822;7.966;2023-03-04T05:31:25;100921.91;;;-2.15;100.00
18022;BME280;9136;48.822;7.966;2023-03-04T05:34:13;100927.16;;;-2.12;100.00
18022;BME280;9136;48.822;7.966;2023-03-04T05:37:00;100922.75;;;-2.16;100.00
18022;BME280;9136;48.822;7.966;2023-03-04T05:39:48;100927.16;;;-2.12;100.00
18022;BME280;9136;48.822;7.966;2023-03-04T05:42:36;100920.09;;;-2.19;100.00
18022;BME280;9136;48.822;7.966;2023-03-04T05:45:25;100925.50;;;-2.10;100.00
18022;BME280;9136;48.822;7.966;2023-03-04T05:48:14;100942.72;;;-2.08;100.00
18022;BME280;9136;48.822;7.966;2023-03-04T05:51:02;100925.19;;;-2.21;100.00
18022;BME280;9136;48.822;7.966;2023-03-04T05:53:49;100930.34;;;-2.21;100.00
18022;BME280;9136;48.822;7.966;2023-03-04T05:56:37;100940.06;;;-2.11;100.00
18022;BME280;9136;48.822;7.966;2023-03-04T05:59:25;100960.84;;;-2.05;100.00
18022;BME280;9136;48.822;7.966;2023-03-04T06:02:13;100944.94;;;-2.20;100.00
18022;BME280;9136;48.822;7.966;2023-03-04T06:05:04;100956.06;;;-2.21;100.00
18022;BME280;9136;48.822;7.966;2023-03-04T06:07:52;100950.63;;;-2.30;100.00
18022;BME280;9136;48.822;7.966;2023-03-04T06:10:40;100976.72;;;-2.19;100.00
18022;BME280;9136;48.822;7.966;2023-03-04T06:13:28;100965.09;;;-2.34;100.00
18022;BME280;9136;48.822;7.966;2023-03-04T06:16:16;100959.78;;;-2.40;100.00
18022;BME280;9136;48.822;7.966;2023-03-04T06:19:03;100977.13;;;-2.33;100.00
18022;BME280;9136;48.822;7.966;2023-03-04T06:21:53;100990.88;;;-2.32;100.00
18022;BME280;9136;48.822;7.966;2023-03-04T06:24:40;100984.06;;;-2.32;100.00
18022;BME280;9136;48.822;7.966;2023-03-04T06:27:28;100975.22;;;-2.40;100.00
18022;BME280;9136;48.822;7.966;2023-03-04T06:30:16;100978.66;;;-2.39;100.00
18022;BME280;9136;48.822;7.966;2023-03-04T06:33:04;100993.41;;;-2.34;100.00
18022;BME280;9136;48.822;7.966;2023-03-04T06:35:53;100985.47;;;-2.41;100.00
18022;BME280;9136;48.822;7.966;2023-03-04T06:38:43;100982.94;;;-2.40;100.00
18022;BME280;9136;48.822;7.966;2023-03-04T06:41:31;100990.13;;;-2.29;100.00
18022;BME280;9136;48.822;7.966;2023-03-04T06:44:18;100989.38;;;-2.25;100.00
18022;BME280;9136;48.822;7.966;2023-03-04T06:47:07;100972.09;;;-2.29;100.00
18022;BME280;9136;48.822;7.966;2023-03-04T06:49:55;100987.00;;;-2.19;100.00
18022;BME280;9136;48.822;7.966;2023-03-04T06:52:42;101002.59;;;-2.13;100.00
18022;BME280;9136;48.822;7.966;2023-03-04T06:55:32;100990.78;;;-2.08;100.00
18022;BME280;9136;48.822;7.966;2023-03-04T06:58:20;100986.69;;;-2.02;100.00
18022;BME280;9136;48.822;7.966;2023-03-04T07:01:10;100965.00;;;-2.10;100.00
18022;BME280;9136;48.822;7.966;2023-03-04T07:03:58;100994.97;;;-1.83;100.00
18022;BME280;9136;48.822;7.966;2023-03-04T07:06:46;101003.84;;;-1.74;100.00
18022;BME280;9136;48.822;7.966;2023-03-04T07:09:34;100996.28;;;-1.67;100.00
18022;BME280;9136;48.822;7.966;2023-03-04T07:12:23;100989.56;;;-1.62;100.00
18022;BME280;9136;48.822;7.966;2023-03-04T07:15:11;100996.78;;;-1.51;100.00
18022;BME280;9136;48.822;7.966;2023-03-04T07:17:59;101003.75;;;-1.47;100.00
18022;BME280;9136;48.822;7.966;2023-03-04T07:20:50;101018.91;;;-1.27;100.00
18022;BME280;9136;48.822;7.966;2023-03-04T07:23:38;101015.69;;;-1.19;100.00
18022;BME280;9136;48.822;7.966;2023-03-04T07:26:25;101004.47;;;-1.21;100.00
18022;BME280;9136;48.822;7.966;2023-03-04T07:29:15;101012.53;;;-1.08;100.00
18022;BME280;9136;48.822;7.966;2023-03-04T07:32:06;101011.91;;;-1.00;100.00
18022;BME280;9136;48.822;7.966;2023-03-04T07:34:54;101031.25;;;-0.84;100.00
18022;BME280;9136;48.822;7.966;2023-03-04T07:37:42;101018.25;;;-0.87;100.00
18022;BME280;9136;48.822;7.966;2023-03-04T07:40:30;101027.13;;;-0.77;100.00
18022;BME280;9136;48.822;7.966;2023-03-04T07:43:17;101030.00;;;-0.67;100.00
18022;BME280;9136;48.822;7.966;2023-03-04T07:46:07;101036.31;;;-0.55;100.00
18022;BME280;9136;48.822;7.966;2023-03-04T07:48:55;101033.19;;;-0.42;100.00
18022;BME280;9136;48.822;7.966;2023-03-04T07:51:42;101035.22;;;-0.29;100.00
18022;BME280;9136;48.822;7.966;2023-03-04T07:54:30;101033.84;;;-0.15;100.00
18022;BME280;9136;48.822;7.966;2023-03-04T07:57:18;101046.72;;;0.20;100.00
18022;BME280;9136;48.822;7.966;2023-03-04T08:00:08;101045.59;;;0.48;100.00
18022;BME280;9136;48.822;7.966;2023-03-04T08:02:57;101046.78;;;0.64;100.00
18022;BME280;9136;48.822;7.966;2023-03-04T08:05:45;101056.03;;;0.95;100.00
18022;BME280;9136;48.822;7.966;2023-03-04T08:08:34;101051.03;;;1.02;100.00
18022;BME280;9136;48.822;7.966;2023-03-04T08:11:21;101061.59;;;1.14;100.00
18022;BME280;9136;48.822;7.966;2023-03-04T08:14:10;101060.69;;;1.11;100.00
18022;BME280;9136;48.822;7.966;2023-03-04T08:16:59;101045.91;;;1.05;100.00
18022;BME280;9136;48.822;7.966;2023-03-04T08:19:48;101064.13;;;1.10;100.00
18022;BME280;9136;48.822;7.966;2023-03-04T08:22:36;101050.19;;;1.03;100.00
18022;BME280;9136;48.822;7.966;2023-03-04T08:25:24;101033.81;;;1.04;100.00
18022;BME280;9136;48.822;7.966;2023-03-04T08:28:12;101058.91;;;1.55;100.00
18022;BME280;9136;48.822;7.966;2023-03-04T08:31:00;101058.41;;;1.78;100.00
18022;BME280;9136;48.822;7.966;2023-03-04T08:33:48;101071.13;;;2.17;100.00
18022;BME280;9136;48.822;7.966;2023-03-04T08:36:37;101065.97;;;2.18;100.00
18022;BME280;9136;48.822;7.966;2023-03-04T08:39:25;101061.06;;;2.40;100.00
18022;BME280;9136;48.822;7.966;2023-03-04T08:42:13;101050.97;;;2.58;100.00
18022;BME280;9136;48.822;7.966;2023-03-04T08:45:02;101071.09;;;2.79;100.00
18022;BME280;9136;48.822;7.966;2023-03-04T08:47:50;101060.06;;;2.95;100.00
18022;BME280;9136;48.822;7.966;2023-03-04T08:50:37;101053.38;;;3.15;100.00
18022;BME280;9136;48.822;7.966;2023-03-04T08:53:27;101046.53;;;3.21;100.00
18022;BME280;9136;48.822;7.966;2023-03-04T08:56:15;101069.34;;;3.54;100.00
18022;BME280;9136;48.822;7.966;2023-03-04T08:59:03;101063.44;;;3.68;100.00
18022;BME280;9136;48.822;7.966;2023-03-04T09:01:51;101065.25;;;3.80;100.00
18022;BME280;9136;48.822;7.966;2023-03-04T09:04:39;101061.81;;;3.81;100.00
18022;BME280;9136;48.822;7.966;2023-03-04T09:07:27;101069.75;;;3.96;100.00
18022;BME280;9136;48.822;7.966;2023-03-04T09:10:17;101062.03;;;4.09;100.00
18022;BME280;9136;48.822;7.966;2023-03-04T09:13:05;101070.88;;;4.35;100.00
18022;BME280;9136;48.822;7.966;2023-03-04T09:15:53;101090.78;;;4.31;100.00
18022;BME280;9136;48.822;7.966;2023-03-04T09:18:41;101084.75;;;4.37;100.00
18022;BME280;9136;48.822;7.966;2023-03-04T09:21:29;101077.78;;;4.31;100.00
18022;BME280;9136;48.822;7.966;2023-03-04T09:24:17;101085.50;;;4.22;100.00
18022;BME280;9136;48.822;7.966;2023-03-04T09:27:08;101067.34;;;4.27;100.00
18022;BME280;9136;48.822;7.966;2023-03-04T09:29:55;101083.09;;;4.47;100.00
18022;BME280;9136;48.822;7.966;2023-03-04T09:32:43;101083.03;;;4.44;100.00
18022;BME280;9136;48.822;7.966;2023-03-04T09:35:31;101076.03;;;4.34;100.00
18022;BME280;9136;48.822;7.966;2023-03-04T09:38:19;101085.69;;;4.47;100.00
18022;BME280;9136;48.822;7.966;2023-03-04T09:41:14;101086.63;;;4.58;100.00
18022;BME280;9136;48.822;7.966;2023-03-04T09:44:11;101085.69;;;4.48;100.00
18022;BME280;9136;48.822;7.966;2023-03-04T09:47:05;101090.94;;;4.54;100.00
18022;BME280;9136;48.822;7.966;2023-03-04T09:49:57;101086.72;;;4.81;100.00
18022;BME280;9136;48.822;7.966;2023-03-04T09:52:55;101084.97;;;4.75;100.00
18022;BME280;9136;48.822;7.966;2023-03-04T09:55:49;101091.13;;;4.94;100.00
18022;BME280;9136;48.822;7.966;2023-03-04T09:58:45;101092.84;;;4.83;100.00
18022;BME280;9136;48.822;7.966;2023-03-04T10:01:41;101075.34;;;4.54;100.00
18022;BME280;9136;48.822;7.966;2023-03-04T10:04:35;101077.22;;;4.84;100.00
18022;BME280;9136;48.822;7.966;2023-03-04T10:07:30;101089.38;;;4.90;100.00
18022;BME280;9136;48.822;7.966;2023-03-04T10:10:24;101094.53;;;4.78;100.00
18022;BME280;9136;48.822;7.966;2023-03-04T10:13:15;101093.63;;;4.73;100.00
18022;BME280;9136;48.822;7.966;2023-03-04T10:16:08;101080.66;;;4.79;100.00
18022;BME280;9136;48.822;7.966;2023-03-04T10:19:22;101080.56;;;4.60;100.00
18022;BME280;9136;48.822;7.966;2023-03-04T10:22:18;101080.59;;;4.70;100.00
18022;BME280;9136;48.822;7.966;2023-03-04T10:25:18;101082.53;;;5.13;100.00
18022;BME280;9136;48.822;7.966;2023-03-04T10:28:11;101085.75;;;4.60;100.00
18022;BME280;9136;48.822;7.966;2023-03-04T10:31:08;101055.47;;;4.76;100.00
18022;BME280;9136;48.822;7.966;2023-03-04T10:33:58;101053.09;;;5.62;97.40
18022;BME280;9136;48.822;7.966;2023-03-04T10:36:55;101076.59;;;6.05;94.90
18022;BME280;9136;48.822;7.966;2023-03-04T10:39:46;101043.53;;;5.74;92.12
18022;BME280;9136;48.822;7.966;2023-03-04T10:42:34;101070.53;;;5.92;84.81
18022;BME280;9136;48.822;7.966;2023-03-04T10:45:24;101062.69;;;5.89;89.45
18022;BME280;9136;48.822;7.966;2023-03-04T10:48:19;101064.41;;;6.31;86.54
18022;BME280;9136;48.822;7.966;2023-03-04T10:51:15;101056.25;;;7.18;77.77
18022;BME280;9136;48.822;7.966;2023-03-04T10:54:08;101062.41;;;7.08;73.21
18022;BME280;9136;48.822;7.966;2023-03-04T10:56:59;101044.06;;;7.14;69.12
18022;BME280;9136;48.822;7.966;2023-03-04T10:59:48;101045.81;;;8.30;68.71
18022;BME280;9136;48.822;7.966;2023-03-04T11:02:38;101027.88;;;9.92;55.93
18022;BME280;9136;48.822;7.966;2023-03-04T11:05:31;101054.25;;;8.56;53.49
18022;BME280;9136;48.822;7.966;2023-03-04T11:08:20;101042.25;;;7.28;59.50
18022;BME280;9136;48.822;7.966;2023-03-04T11:11:24;101045.47;;;8.62;57.71
18022;BME280;9136;48.822;7.966;2023-03-04T11:14:20;101028.00;;;9.84;52.38
18022;BME280;9136;48.822;7.966;2023-03-04T11:17:23;101046.94;;;8.84;56.48
18022;BME280;9136;48.822;7.966;2023-03-04T11:20:15;101035.63;;;8.01;57.85
18022;BME280;9136;48.822;7.966;2023-03-04T11:23:05;101017.66;;;7.57;61.18
18022;BME280;9136;48.822;7.966;2023-03-04T11:25:57;101015.50;;;6.88;67.61
18022;BME280;9136;48.822;7.966;2023-03-04T11:28:52;101003.25;;;6.95;67.36
18022;BME280;9136;48.822;7.966;2023-03-04T11:31:47;101011.19;;;6.73;68.74
18022;BME280;9136;48.822;7.966;2023-03-04T11:34:39;101013.94;;;6.40;77.20
18022;BME280;9136;48.822;7.966;2023-03-04T11:37:31;101016.50;;;6.58;77.05
18022;BME280;9136;48.822;7.966;2023-03-04T11:40:27;101010.50;;;5.84;76.60
18022;BME280;9136;48.822;7.966;2023-03-04T11:43:23;100998.34;;;5.85;80.53
18022;BME280;9136;48.822;7.966;2023-03-04T11:46:40;101007.03;;;5.87;78.50
18022;BME280;9136;48.822;7.966;2023-03-04T11:49:54;100995.75;;;5.68;79.36
18022;BME280;9136;48.822;7.966;2023-03-04T11:52:56;100993.13;;;5.59;83.00
18022;BME280;9136;48.822;7.966;2023-03-04T11:55:51;100991.38;;;5.87;83.19
18022;BME280;9136;48.822;7.966;2023-03-04T11:59:09;100996.59;;;6.14;84.23
18022;BME280;9136;48.822;7.966;2023-03-04T12:02:16;100992.25;;;6.18;75.95
18022;BME280;9136;48.822;7.966;2023-03-04T12:05:18;100987.91;;;6.05;75.86
18022;BME280;9136;48.822;7.966;2023-03-04T12:08:23;100982.69;;;6.08;77.99
18022;BME280;9136;48.822;7.966;2023-03-04T12:11:22;100980.09;;;6.06;77.96
18022;BME280;9136;48.822;7.966;2023-03-04T12:14:22;100980.06;;;6.17;75.78
18022;BME280;9136;48.822;7.966;2023-03-04T12:17:35;100980.91;;;6.26;72.09
18022;BME280;9136;48.822;7.966;2023-03-04T12:20:34;100959.22;;;5.79;76.40
18022;BME280;9136;48.822;7.966;2023-03-04T12:23:39;100959.28;;;5.91;80.32
18022;BME280;9136;48.822;7.966;2023-03-04T12:26:35;100960.97;;;5.86;79.30
18022;BME280;9136;48.822;7.966;2023-03-04T12:29:28;100961.88;;;5.65;79.60
18022;BME280;9136;48.822;7.966;2023-03-04T12:32:24;100954.06;;;5.45;80.41
18022;BME280;9136;48.822;7.966;2023-03-04T12:35:37;100951.41;;;5.77;90.29
18022;BME280;9136;48.822;7.966;2023-03-04T12:38:37;100954.91;;;5.93;85.17
18022;BME280;9136;48.822;7.966;2023-03-04T12:41:38;100945.31;;;5.87;85.08
18022;BME280;9136;48.822;7.966;2023-03-04T12:44:31;100946.22;;;5.89;86.89
18022;BME280;9136;48.822;7.966;2023-03-04T12:47:31;100945.34;;;5.84;86.11
18022;BME280;9136;48.822;7.966;2023-03-04T12:50:36;100932.31;;;5.66;82.62
18022;BME280;9136;48.822;7.966;2023-03-04T12:53:41;100941.00;;;5.80;83.44
18022;BME280;9136;48.822;7.966;2023-03-04T12:56:39;100942.72;;;5.84;85.80
18022;BME280;9136;48.822;7.966;2023-03-04T12:59:34;100924.50;;;5.90;82.70
18022;BME280;9136;48.822;7.966;2023-03-04T13:02:34;100923.59;;;5.88;90.27
18022;BME280;9136;48.822;7.966;2023-03-04T13:05:40;100921.88;;;5.93;93.63
18022;BME280;9136;48.822;7.966;2023-03-04T13:08:37;100938.34;;;5.88;94.42
18022;BME280;9136;48.822;7.966;2023-03-04T13:12:01;100931.44;;;5.74;92.14
18022;BME280;9136;48.822;7.966;2023-03-04T13:15:26;100921.88;;;5.81;91.76
18022;BME280;9136;48.822;7.966;2023-03-04T13:18:35;100914.94;;;5.80;95.35
18022;BME280;9136;48.822;7.966;2023-03-04T13:21:25;100927.97;;;5.92;88.95
18022;BME280;9136;48.822;7.966;2023-03-04T13:24:46;100927.88;;;6.21;80.94
18022;BME280;9136;48.822;7.966;2023-03-04T13:27:47;100906.16;;;6.15;73.22
18022;BME280;9136;48.822;7.966;2023-03-04T13:30:42;100919.09;;;6.47;80.44
18022;BME280;9136;48.822;7.966;2023-03-04T13:33:56;100911.19;;;6.54;79.91
18022;BME280;9136;48.822;7.966;2023-03-04T13:36:55;100915.50;;;6.66;74.83
18022;BME280;9136;48.822;7.966;2023-03-04T13:39:46;100906.75;;;6.76;74.71
18022;BME280;9136;48.822;7.966;2023-03-04T13:42:53;100891.94;;;6.74;72.34
18022;BME280;9136;48.822;7.966;2023-03-04T13:45:41;100901.41;;;6.92;71.36
18022;BME280;9136;48.822;7.966;2023-03-04T13:48:31;100900.47;;;7.02;69.72
18022;BME280;9136;48.822;7.966;2023-03-04T13:51:23;100899.53;;;7.09;68.25
18022;BME280;9136;48.822;7.966;2023-03-04T13:54:14;100894.59;;;6.65;71.15
18022;BME280;9136;48.822;7.966;2023-03-04T13:57:16;100896.41;;;6.55;73.13
18022;BME280;9136;48.822;7.966;2023-03-04T14:00:11;100893.78;;;6.55;75.23
18022;BME280;9136;48.822;7.966;2023-03-04T14:03:12;100900.72;;;6.67;75.07
18022;BME280;9136;48.822;7.966;2023-03-04T14:06:16;100888.41;;;6.82;76.67
18022;BME280;9136;48.822;7.966;2023-03-04T14:09:12;100898.03;;;6.79;73.39
18022;BME280;9136;48.822;7.966;2023-03-04T14:12:02;100885.09;;;6.59;69.86
18022;BME280;9136;48.822;7.966;2023-03-04T14:14:54;100882.47;;;6.56;70.00
18022;BME280;9136;48.822;7.966;2023-03-04T14:17:45;100880.69;;;6.63;70.75
18022;BME280;9136;48.822;7.966;2023-03-04T14:20:35;100887.78;;;6.47;74.54
18022;BME280;9136;48.822;7.966;2023-03-04T14:23:26;100874.81;;;6.25;72.66
18022;BME280;9136;48.822;7.966;2023-03-04T14:26:16;100880.13;;;6.09;74.43
18022;BME280;9136;48.822;7.966;2023-03-04T14:29:19;100883.56;;;6.08;68.51
18022;BME280;9136;48.822;7.966;2023-03-04T14:32:10;100878.44;;;5.91;69.61
18022;BME280;9136;48.822;7.966;2023-03-04T14:35:03;100874.91;;;5.87;67.26
18022;BME280;9136;48.822;7.966;2023-03-04T14:37:55;100887.97;;;5.93;67.74
18022;BME280;9136;48.822;7.966;2023-03-04T14:40:48;100870.66;;;5.60;69.84
18022;BME280;9136;48.822;7.966;2023-03-04T14:43:40;100863.66;;;5.78;71.59
18022;BME280;9136;48.822;7.966;2023-03-04T14:46:32;100866.25;;;5.99;69.23
18022;BME280;9136;48.822;7.966;2023-03-04T14:49:22;100872.19;;;6.30;68.18
18022;BME280;9136;48.822;7.966;2023-03-04T14:52:35;100870.44;;;6.26;66.14
18022;BME280;9136;48.822;7.966;2023-03-04T14:55:24;100873.19;;;6.01;68.13
18022;BME280;9136;48.822;7.966;2023-03-04T14:58:19;100868.75;;;6.16;68.60
18022;BME280;9136;48.822;7.966;2023-03-04T15:01:14;100860.97;;;6.13;75.49
18022;BME280;9136;48.822;7.966;2023-03-04T15:04:04;100854.94;;;5.94;73.52
18022;BME280;9136;48.822;7.966;2023-03-04T15:06:54;100865.34;;;5.97;72.66